Time;durP1;ratioP1;P1;durP2;ratioP2;P2;SDS_P1;SDS_P2;PMS_P1;PMS_P2;Temp;Humidity;BMP_temperature;BMP_pressure;BME280_temperature;BME280_humidity;BME280_pressure;Samples;Min_cycle;Max_cycle;Signal;HPM_P1;HPM_P2
2022/01/24 00:07:23;;;;;;;32.90;16.37;;;;;;;-5.02;64.18;102243.56;18626507;31;20080;-67
2022/01/24 00:17:37;;;;;;;32.97;16.27;;;;;;;-4.50;62.55;102250.66;18626002;31;20112;-68
2022/01/24 00:27:42;;;;;;;31.37;14.93;;;;;;;-4.96;63.11;102255.94;18626489;31;20106;-68
2022/01/24 00:37:45;;;;;;;33.57;17.47;;;;;;;-5.07;62.61;102265.19;18624344;31;20089;-68
2022/01/24 00:48:07;;;;;;;29.30;13.27;;;;;;;-5.49;63.44;102281.72;18624272;31;20092;-68
2022/01/24 00:58:10;;;;;;;27.13;14.17;;;;;;;-5.47;63.94;102276.75;18623663;31;20458;-68
2022/01/24 01:18:31;;;;;;;38.13;17.23;;;;;;;-5.60;63.99;102284.91;18622015;31;20118;-67
2022/01/24 01:28:37;;;;;;;32.13;15.23;;;;;;;-5.81;64.10;102297.41;18621997;31;20087;-67
2022/01/24 01:39:03;;;;;;;28.17;13.03;;;;;;;-6.28;64.51;102295.56;18621418;31;20080;-67
2022/01/24 01:59:28;;;;;;;30.47;15.47;;;;;;;-6.34;65.72;102284.81;18630183;31;20084;-68
2022/01/24 02:09:34;;;;;;;42.30;19.07;;;;;;;-6.03;65.32;102287.75;18629853;31;20531;-68
2022/01/24 02:19:52;;;;;;;34.03;15.37;;;;;;;-6.10;64.83;102302.28;18629687;31;20092;-68
2022/01/24 02:30:11;;;;;;;35.10;16.57;;;;;;;-5.99;63.63;102301.63;18629513;31;20084;-67
2022/01/24 02:40:17;;;;;;;33.40;16.77;;;;;;;-6.01;63.67;102301.47;18629138;31;20087;-68
2022/01/24 02:50:32;;;;;;;36.03;17.80;;;;;;;-6.25;64.17;102322.06;18628851;31;20440;-68
2022/01/24 03:00:37;;;;;;;34.03;16.17;;;;;;;-6.45;64.75;102320.97;18628169;31;20080;-67
2022/01/24 03:10:44;;;;;;;41.53;17.23;;;;;;;-6.42;63.58;102327.28;18628150;31;20080;-67
2022/01/24 03:20:48;;;;;;;36.67;17.50;;;;;;;-6.33;63.57;102324.75;18628173;31;20114;-67
2022/01/24 03:30:52;;;;;;;37.40;16.90;;;;;;;-7.05;63.97;102328.69;18627612;31;20179;-68
2022/01/24 03:40:55;;;;;;;32.83;16.60;;;;;;;-7.28;65.44;102337.44;18627396;31;20107;-67
2022/01/24 03:50:59;;;;;;;30.90;15.13;;;;;;;-7.11;65.59;102354.34;18626826;31;20106;-67
2022/01/24 04:01:05;;;;;;;36.43;16.83;;;;;;;-6.70;64.05;102346.53;18626628;31;20112;-68
2022/01/24 04:11:11;;;;;;;34.23;16.20;;;;;;;-6.91;62.96;102343.66;18626155;31;20106;-66
2022/01/24 04:21:21;;;;;;;30.03;16.50;;;;;;;-6.88;63.02;102350.66;18625889;31;20084;-67
2022/01/24 04:31:26;;;;;;;42.65;19.17;;;;;;;-6.69;61.99;102353.41;18625403;31;20102;-67
2022/01/24 04:41:32;;;;;;;40.23;18.00;;;;;;;-7.42;63.04;102372.44;18624968;31;20111;-67
2022/01/24 04:51:51;;;;;;;31.67;15.73;;;;;;;-6.83;61.80;102372.34;18624216;31;20096;-66
2022/01/24 05:01:54;;;;;;;42.97;19.80;;;;;;;-7.24;62.33;102382.66;18623581;31;20119;-67
2022/01/24 05:12:03;;;;;;;47.87;19.70;;;;;;;-7.61;64.42;102391.56;18623045;31;20102;-67
2022/01/24 05:32:28;;;;;;;50.37;22.37;;;;;;;-7.06;62.14;102418.28;18631186;31;20436;-66
2022/01/24 05:42:31;;;;;;;47.97;20.30;;;;;;;-7.45;63.41;102416.87;18630647;31;20075;-66
2022/01/24 05:52:35;;;;;;;41.63;21.33;;;;;;;-7.72;62.67;102433.59;18630393;31;20096;-66
2022/01/24 06:02:38;;;;;;;48.83;19.00;;;;;;;-7.91;63.54;102454.47;18630180;31;20080;-67
2022/01/24 06:12:43;;;;;;;42.53;19.97;;;;;;;-7.60;63.75;102454.25;18629907;31;20425;-66
2022/01/24 06:22:48;;;;;;;41.73;21.23;;;;;;;-7.77;64.14;102466.09;18629659;31;20133;-66
2022/01/24 06:32:52;;;;;;;45.87;21.07;;;;;;;-7.53;63.53;102479.53;18629030;31;20089;-67
2022/01/24 06:42:55;;;;;;;42.57;20.33;;;;;;;-7.35;62.58;102490.72;18629235;31;20088;-67
2022/01/24 06:53:00;;;;;;;35.80;19.33;;;;;;;-7.63;62.52;102486.91;18628788;31;20113;-67
2022/01/24 07:03:03;;;;;;;46.60;20.27;;;;;;;-7.63;62.33;102508.13;18626928;31;20092;-66
2022/01/24 07:13:08;;;;;;;40.90;20.57;;;;;;;-7.14;62.69;102530.09;18627881;31;20107;-66
2022/01/24 07:23:11;;;;;;;99.70;34.73;;;;;;;-5.57;59.54;102539.72;18621420;31;20344;-67
2022/01/24 07:33:19;;;;;;;60.20;27.93;;;;;;;-4.11;56.39;102532.09;18627026;31;20088;-68
2022/01/24 07:43:23;;;;;;;38.80;19.70;;;;;;;-3.82;57.56;102544.97;18615576;31;105345;-68
2022/01/24 07:53:28;;;;;;;43.07;21.43;;;;;;;-2.28;55.16;102565.09;18627099;31;20488;-67
2022/01/24 08:03:51;;;;;;;43.27;22.73;;;;;;;-2.00;54.98;102563.22;18626566;31;20114;-67
2022/01/24 08:13:56;;;;;;;39.30;20.10;;;;;;;-2.49;56.82;102567.59;18623548;31;20101;-68
2022/01/24 08:24:02;;;;;;;50.03;24.00;;;;;;;-2.34;56.98;102577.38;18624001;31;20088;-68
2022/01/24 08:34:06;;;;;;;39.67;20.00;;;;;;;-2.38;58.37;102577.09;18625589;31;20088;-67
2022/01/24 08:44:19;;;;;;;40.43;19.43;;;;;;;-1.92;58.41;102588.56;18624649;31;20469;-68
2022/01/24 08:54:23;;;;;;;38.27;20.40;;;;;;;-1.67;57.79;102587.28;18623945;31;20636;-68
2022/01/24 09:04:26;;;;;;;37.77;18.63;;;;;;;-1.21;55.63;102594.38;18631555;31;20087;-68
2022/01/24 09:14:31;;;;;;;30.83;16.83;;;;;;;-0.80;56.10;102592.50;18631142;31;20084;-68
2022/01/24 09:24:34;;;;;;;32.03;16.27;;;;;;;-0.17;54.50;102582.00;18631576;31;20103;-68
2022/01/24 09:34:38;;;;;;;26.12;13.62;;;;;;;-0.07;54.76;102586.16;18630961;31;20098;-69
2022/01/24 09:44:43;;;;;;;23.10;12.20;;;;;;;1.80;48.24;102573.84;18631819;31;20098;-69
2022/01/24 09:54:49;;;;;;;25.95;12.40;;;;;;;1.88;47.13;102576.94;18630471;31;20110;-69
2022/01/24 10:04:52;;;;;;;21.20;10.13;;;;;;;1.82;47.24;102555.94;18630273;31;20088;-68
2022/01/24 10:25:22;;;;;;;15.60;7.43;;;;;;;2.14;45.69;102557.19;18630015;31;20088;-69
2022/01/24 10:35:34;;;;;;;10.85;4.85;;;;;;;2.57;44.07;102543.69;18630522;31;20114;-69
2022/01/24 10:45:42;;;;;;;;;;;;;;;2.43;37.24;102541.13;18629031;31;20072;-70
2022/01/24 10:55:46;;;;;;;9.75;3.55;;;;;;;2.99;36.15;102533.44;18628978;31;19972;-70
2022/01/24 11:05:49;;;;;;;10.27;4.90;;;;;;;2.39;35.37;102533.06;18628615;31;20076;-70
2022/01/24 11:15:58;;;;;;;11.18;5.57;;;;;;;1.65;36.91;102532.47;18628345;31;20088;-70
2022/01/24 11:26:07;;;;;;;12.35;5.90;;;;;;;2.21;37.29;102526.78;18627927;31;20088;-69
2022/01/24 11:36:15;;;;;;;13.85;5.53;;;;;;;2.31;37.17;102528.31;18627551;31;20087;-70
2022/01/24 11:46:37;;;;;;;10.88;5.20;;;;;;;1.96;37.17;102513.94;18627068;31;20069;-70
2022/01/24 11:56:42;;;;;;;12.07;5.43;;;;;;;2.58;36.88;102505.13;18627191;31;20128;-70
2022/01/24 12:07:16;;;;;;;10.60;5.03;;;;;;;1.74;38.54;102497.06;18626498;31;20086;-70
2022/01/24 12:17:45;;;;;;;14.93;5.85;;;;;;;2.27;37.47;102477.31;18563436;31;20368;-70
2022/01/24 12:28:19;;;;;;;12.50;5.10;;;;;;;2.20;37.01;102478.63;18568648;31;91785;-70
2022/01/24 12:41:27;;;;;;;14.20;6.17;;;;;;;3.60;34.72;102439.91;18407465;31;193253;-71
2022/01/24 12:51:32;;;;;;;10.90;4.77;;;;;;;3.60;34.72;102439.91;18423574;32;20132;-70
2022/01/24 13:01:38;;;;;;;11.10;4.78;;;;;;;2.59;35.41;102454.41;18412424;32;20101;-70
2022/01/24 13:11:48;;;;;;;13.30;6.50;;;;;;;2.71;34.43;102437.16;18442475;32;20108;-71
2022/01/24 13:22:02;;;;;;;11.27;5.05;;;;;;;3.30;33.08;102434.69;18412052;32;20465;-70
2022/01/24 13:32:06;;;;;;;8.53;3.87;;;;;;;2.75;34.38;102443.37;18412016;32;20101;-71
2022/01/24 13:42:18;;;;;;;14.63;7.72;;;;;;;3.45;33.09;102450.22;18412743;32;20104;-70
2022/01/24 13:52:25;;;;;;;12.27;5.20;;;;;;;3.15;33.66;102447.56;18371640;32;20438;-71
2022/01/24 14:02:34;;;;;;;14.38;5.93;;;;;;;3.66;32.39;102439.41;18369450;32;20081;-70
2022/01/24 14:12:51;;;;;;;15.77;5.12;;;;;;;3.64;32.23;102441.88;18369221;32;20113;-71
2022/01/24 14:22:56;;;;;;;10.65;4.65;;;;;;;3.53;30.51;102446.41;18368377;32;20090;-71
2022/01/24 14:33:02;;;;;;;10.75;4.32;;;;;;;3.28;29.97;102439.78;18368802;32;20139;-71
2022/01/24 14:53:29;;;;;;;38.60;18.73;;;;;;;3.29;30.68;102430.31;18368184;32;20150;-71
2022/01/24 15:03:35;;;;;;;18.70;8.68;;;;;;;3.33;30.94;102433.19;18368291;32;20480;-71
2022/01/24 15:13:42;;;;;;;16.23;8.63;;;;;;;3.03;31.35;102424.47;18369258;32;20389;-71
2022/01/24 15:24:11;;;;;;;27.70;11.48;;;;;;;2.77;31.47;102439.22;18368829;32;20093;-71
2022/01/24 15:34:19;;;;;;;46.75;19.42;;;;;;;2.36;32.32;102444.41;18368343;32;20154;-70
2022/01/24 15:54:53;;;;;;;25.12;11.55;;;;;;;1.59;35.22;102455.72;18367835;32;20101;-71
2022/01/24 16:04:58;;;;;;;22.00;9.18;;;;;;;1.10;37.66;102442.94;18367701;32;20093;-70
2022/01/24 16:15:01;;;;;;;15.83;6.70;;;;;;;0.61;39.60;102464.41;18366816;32;20097;-70
2022/01/24 16:25:23;;;;;;;17.83;7.00;;;;;;;0.38;39.48;102470.44;18367088;32;20146;-70
2022/01/24 16:35:27;;;;;;;16.33;5.75;;;;;;;-0.07;41.18;102467.16;18366080;32;20120;-69
2022/01/24 16:55:56;;;;;;;13.73;5.50;;;;;;;-0.79;43.09;102484.88;18365040;32;20401;-69
2022/01/24 17:06:02;;;;;;;16.33;5.37;;;;;;;-1.02;41.30;102498.44;18364820;32;20086;-69
2022/01/24 17:16:06;;;;;;;20.57;6.27;;;;;;;-1.52;42.67;102504.78;18364021;32;20116;-69
2022/01/24 17:26:11;;;;;;;15.87;5.30;;;;;;;-1.85;44.79;102499.59;18370591;32;20109;-69
2022/01/24 17:36:14;;;;;;;15.70;6.67;;;;;;;-1.81;46.60;102510.97;18372809;32;20727;-70
2022/01/24 17:46:19;;;;;;;16.13;7.40;;;;;;;-2.17;46.36;102510.63;18371850;32;20098;-69
2022/01/24 17:56:22;;;;;;;20.43;8.77;;;;;;;-2.73;48.93;102510.12;18371493;32;20093;-69
2022/01/24 18:06:29;;;;;;;22.03;8.87;;;;;;;-2.68;49.96;102509.75;18371148;32;20107;-69
2022/01/24 18:16:33;;;;;;;109.80;40.70;;;;;;;-2.92;51.25;102503.44;18370661;32;20097;-68
2022/01/24 18:26:37;;;;;;;20.70;9.80;;;;;;;-2.96;50.94;102507.38;18369779;32;20435;-70
2022/01/24 18:36:41;;;;;;;34.53;14.03;;;;;;;-2.67;50.43;102514.13;18369762;32;20125;-69
2022/01/24 18:46:45;;;;;;;34.83;16.07;;;;;;;-3.28;52.21;102527.53;18369827;32;20413;-69
2022/01/24 18:56:48;;;;;;;25.07;12.00;;;;;;;-3.44;52.96;102522.75;18369747;32;20115;-69
2022/01/24 19:06:55;;;;;;;23.97;10.87;;;;;;;-3.65;53.14;102527.72;18369525;32;20093;-68
2022/01/24 19:16:59;;;;;;;23.50;10.10;;;;;;;-3.81;53.20;102535.66;18369361;32;20133;-68
2022/01/24 19:27:05;;;;;;;26.83;13.93;;;;;;;-4.17;53.14;102542.66;18369153;32;20192;-69
2022/01/24 19:37:09;;;;;;;27.47;12.07;;;;;;;-4.14;54.06;102545.47;18368688;32;20661;-68
2022/01/24 19:47:14;;;;;;;28.63;13.73;;;;;;;-4.18;54.00;102546.84;18367451;32;20097;-68
2022/01/24 19:57:26;;;;;;;21.87;11.57;;;;;;;-4.69;55.67;102543.78;18368050;32;20093;-68
2022/01/24 20:07:31;;;;;;;25.37;12.30;;;;;;;-4.80;56.53;102546.19;18367964;32;20115;-68
2022/01/24 20:17:34;;;;;;;23.63;10.87;;;;;;;-4.82;56.60;102554.47;18407053;32;20093;-67
2022/01/24 20:27:39;;;;;;;21.53;10.67;;;;;;;-5.07;56.88;102537.72;18404654;32;20109;-68
2022/01/24 20:37:43;;;;;;;30.23;13.87;;;;;;;-5.05;56.50;102536.22;18366009;32;20117;-68
2022/01/24 20:47:48;;;;;;;23.23;10.53;;;;;;;-4.93;55.71;102533.03;18365864;32;20089;-68
2022/01/24 20:57:52;;;;;;;25.03;11.90;;;;;;;-5.36;57.53;102530.72;18368447;32;20516;-67
2022/01/24 21:07:57;;;;;;;27.63;12.40;;;;;;;-5.49;58.03;102541.38;18373748;32;20098;-68
2022/01/24 21:18:00;;;;;;;47.40;22.60;;;;;;;-5.35;58.91;102541.78;18365926;32;20756;-68
2022/01/24 21:28:05;;;;;;;42.83;19.07;;;;;;;-5.46;59.90;102528.94;18407586;32;20116;-68
2022/01/24 21:38:09;;;;;;;43.33;20.33;;;;;;;-5.22;58.59;102528.59;18432558;32;20133;-67
2022/01/24 21:48:14;;;;;;;38.93;18.90;;;;;;;-5.67;60.81;102535.34;18434425;32;20390;-67
2022/01/24 21:58:17;;;;;;;32.90;17.37;;;;;;;-5.71;60.00;102523.97;18431010;32;20194;-68
2022/01/24 22:18:43;;;;;;;54.23;23.33;;;;;;;-5.80;60.17;102515.44;18367301;32;20100;-67
2022/01/24 22:28:48;;;;;;;41.53;19.10;;;;;;;-5.90;60.71;102506.00;18364503;32;20094;-67
2022/01/24 22:38:52;;;;;;;51.50;20.80;;;;;;;-6.03;60.38;102508.09;18369727;32;20116;-67
2022/01/24 22:48:58;;;;;;;48.50;23.20;;;;;;;-6.15;61.10;102501.06;18369745;32;20106;-67
2022/01/24 22:59:01;;;;;;;55.00;26.53;;;;;;;-6.27;60.83;102493.09;18369747;32;20089;-68
2022/01/24 23:09:06;;;;;;;57.77;26.37;;;;;;;-6.57;60.50;102468.09;18369448;32;20098;-68
2022/01/24 23:19:12;;;;;;;58.33;28.03;;;;;;;-6.51;61.54;102477.97;18368242;32;20700;-67
2022/01/24 23:29:19;;;;;;;83.20;34.10;;;;;;;-6.75;61.47;102480.72;18369674;32;20089;-67
2022/01/24 23:39:24;;;;;;;86.13;36.33;;;;;;;-6.89;61.99;102470.78;18368404;32;20124;-67
2022/01/24 23:49:30;;;;;;;74.93;33.20;;;;;;;-6.94;62.95;102460.16;18368555;32;20093;-67
